Time;durP1;ratioP1;P1;durP2;ratioP2;P2;SDS_P1;SDS_P2;PMS_P1;PMS_P2;Temp;Humidity;BMP_temperature;BMP_pressure;BME280_temperature;BME280_humidity;BME280_pressure;Samples;Min_cycle;Max_cycle;Signal;HPM_P1;HPM_P2
2023/03/16 00:00:12;;;;;;;0.50;0.50;;;;;;;-0.63;88.74;100540.38;5046949;28;20025;-64
2023/03/16 00:02:42;;;;;;;0.50;0.50;;;;;;;-0.67;88.47;100544.47;5046971;28;20520;-65
2023/03/16 00:05:09;;;;;;;0.50;0.50;;;;;;;-0.68;88.60;100544.41;5046901;28;20089;-65
2023/03/16 00:07:35;;;;;;;0.50;0.50;;;;;;;-0.71;88.69;100544.28;5047138;28;20025;-64
2023/03/16 00:10:02;;;;;;;0.50;0.50;;;;;;;-0.79;88.69;100539.75;5046647;28;20025;-64
2023/03/16 00:12:27;;;;;;;0.50;0.50;;;;;;;-0.79;88.66;100549.94;5046897;28;20053;-63
2023/03/16 00:14:53;;;;;;;0.50;0.50;;;;;;;-0.85;88.75;100548.81;5046577;28;20355;-63
2023/03/16 00:17:20;;;;;;;0.50;0.50;;;;;;;-0.85;88.67;100556.47;5046887;28;20024;-64
2023/03/16 00:19:53;;;;;;;0.40;0.40;;;;;;;-0.90;88.82;100558.84;5047074;28;20025;-64
2023/03/16 00:22:24;;;;;;;0.57;0.57;;;;;;;-0.95;88.71;100555.22;5047373;28;20035;-65
2023/03/16 00:24:51;;;;;;;0.70;0.70;;;;;;;-0.94;88.56;100569.72;5047059;28;20017;-64
2023/03/16 00:27:17;;;;;;;0.50;0.50;;;;;;;-0.98;88.68;100566.19;5046746;28;20018;-64
2023/03/16 00:29:45;;;;;;;0.50;0.50;;;;;;;-1.01;88.65;100578.78;5046995;28;20508;-64
2023/03/16 00:32:16;;;;;;;0.50;0.50;;;;;;;-1.06;88.76;100570.06;5046528;28;20029;-64
2023/03/16 00:34:42;;;;;;;0.50;0.50;;;;;;;-1.03;88.68;100580.41;5046683;28;20030;-65
2023/03/16 00:37:08;;;;;;;0.50;0.50;;;;;;;-1.08;88.70;100582.75;5046291;28;20048;-65
2023/03/16 00:39:34;;;;;;;0.50;0.50;;;;;;;-1.10;88.50;100583.50;5046367;28;20025;-65
2023/03/16 00:42:00;;;;;;;0.50;0.50;;;;;;;-1.10;88.77;100594.56;5046247;28;20064;-66
2023/03/16 00:44:26;;;;;;;0.50;0.50;;;;;;;-1.10;88.66;100597.09;5046007;28;20029;-65
2023/03/16 00:46:52;;;;;;;0.60;0.60;;;;;;;-1.08;88.69;100595.50;5046023;28;20022;-65
2023/03/16 00:49:17;;;;;;;0.47;0.47;;;;;;;-1.09;88.76;100591.22;5046144;28;20056;-66
2023/03/16 00:51:45;;;;;;;0.50;0.50;;;;;;;-1.09;88.69;100598.84;5046070;28;20025;-65
2023/03/16 00:54:11;;;;;;;0.50;0.50;;;;;;;-1.12;88.71;100599.59;5045946;28;20017;-65
2023/03/16 00:56:37;;;;;;;0.50;0.50;;;;;;;-1.15;88.73;100602.00;5045863;28;20147;-65
2023/03/16 00:59:04;;;;;;;0.50;0.50;;;;;;;-1.16;88.74;100604.47;5046121;28;20085;-66
2023/03/16 01:01:31;;;;;;;0.60;0.60;;;;;;;-1.20;88.70;100595.88;5046130;28;20028;-67
2023/03/16 01:03:58;;;;;;;0.50;0.50;;;;;;;-1.19;88.83;100617.09;5045614;28;20497;-65
2023/03/16 01:06:24;;;;;;;0.50;0.50;;;;;;;-1.19;88.80;100619.63;5045790;28;20029;-66
2023/03/16 01:08:54;;;;;;;0.47;0.47;;;;;;;-1.20;88.72;100618.78;5045844;28;20025;-65
2023/03/16 01:11:21;;;;;;;0.90;0.90;;;;;;;-1.21;88.66;100621.25;5045677;28;20104;-65
2023/03/16 01:13:48;;;;;;;0.50;0.50;;;;;;;-1.22;88.99;100630.59;5045684;28;20040;-65
2023/03/16 01:16:17;;;;;;;0.60;0.60;;;;;;;-1.23;88.80;100628.81;5045111;28;20059;-66
2023/03/16 01:18:43;;;;;;;0.50;0.50;;;;;;;-1.29;88.99;100624.34;5045588;28;20033;-64
2023/03/16 01:21:12;;;;;;;0.50;0.50;;;;;;;-1.31;88.81;100625.94;5045421;28;20029;-64
2023/03/16 01:23:38;;;;;;;0.60;0.60;;;;;;;-1.30;88.88;100627.72;5027414;28;20026;-65
2023/03/16 01:26:04;;;;;;;0.50;0.50;;;;;;;-1.31;88.82;100631.03;5045484;28;20032;-64
2023/03/16 01:28:32;;;;;;;0.55;0.55;;;;;;;-1.32;88.89;100638.63;5045261;28;20437;-65
2023/03/16 01:31:15;;;;;;;0.50;0.50;;;;;;;-1.32;88.79;100634.41;5045242;28;20048;-65
2023/03/16 01:33:42;;;;;;;0.50;0.50;;;;;;;-1.31;88.76;100636.13;5045436;28;20032;-65
2023/03/16 01:36:13;;;;;;;0.50;0.50;;;;;;;-1.30;88.78;100647.19;5045083;28;20021;-65
2023/03/16 01:38:40;;;;;;;0.70;0.70;;;;;;;-1.29;88.73;100643.84;5045065;28;20044;-65
2023/03/16 01:41:06;;;;;;;0.60;0.60;;;;;;;-1.28;88.85;100646.44;5045259;28;20033;-66
2023/03/16 01:43:33;;;;;;;0.60;0.60;;;;;;;-1.26;89.06;100659.25;5045123;28;20025;-66
2023/03/16 01:46:05;;;;;;;0.50;0.50;;;;;;;-1.25;88.76;100655.94;5044908;28;20022;-65
2023/03/16 01:48:42;;;;;;;0.70;0.70;;;;;;;-1.29;88.65;100654.91;5044587;28;20052;-65
2023/03/16 01:51:36;;;;;;;0.50;0.50;;;;;;;-1.34;88.52;100658.91;5045097;28;20068;-65
2023/03/16 01:54:08;;;;;;;1.67;1.60;;;;;;;-1.38;88.36;100660.50;5036693;28;20033;-66
2023/03/16 01:56:40;;;;;;;;;;;;;;;-1.41;88.17;100660.34;5060600;28;20029;-65
2023/03/16 01:59:10;;;;;;;0.70;0.70;;;;;;;-1.51;88.02;100663.28;5044779;28;19913;-65
2023/03/16 02:01:36;;;;;;;0.50;0.50;;;;;;;-1.58;88.03;100662.13;5043353;28;20029;-64
2023/03/16 02:04:15;;;;;;;0.50;0.50;;;;;;;-1.67;87.91;100672.75;5044984;28;20453;-65
2023/03/16 02:06:43;;;;;;;0.50;0.50;;;;;;;-1.75;87.71;100664.78;5044908;28;20032;-65
2023/03/16 02:09:09;;;;;;;0.50;0.50;;;;;;;-1.86;87.65;100663.41;5044981;28;20040;-66
2023/03/16 02:11:35;;;;;;;0.50;0.50;;;;;;;-1.90;87.52;100671.72;5044712;28;20029;-65
2023/03/16 02:14:06;;;;;;;0.50;0.50;;;;;;;-1.97;87.49;100678.19;5044767;28;20033;-65
2023/03/16 02:16:32;;;;;;;0.68;0.68;;;;;;;-2.07;86.99;100686.16;5044392;28;20052;-65
2023/03/16 02:18:57;;;;;;;0.50;0.50;;;;;;;-2.13;87.04;100680.00;5045051;28;20029;-65
2023/03/16 02:21:44;;;;;;;0.88;0.88;;;;;;;-2.15;87.14;100689.22;5060115;28;20030;-61
2023/03/16 02:24:10;;;;;;;0.60;0.60;;;;;;;-2.20;87.15;100697.41;5044546;28;20083;-60
2023/03/16 02:27:18;;;;;;;0.60;0.60;;;;;;;-2.24;87.44;100704.03;5045013;28;20083;-60
2023/03/16 02:29:59;;;;;;;0.60;0.60;;;;;;;-2.30;87.67;100704.59;5022476;28;20149;-61
2023/03/16 02:32:26;;;;;;;0.50;0.50;;;;;;;-2.35;87.53;100707.72;5022399;28;20073;-60
2023/03/16 02:34:53;;;;;;;0.50;0.50;;;;;;;-2.41;87.68;100705.75;5025580;28;20386;-60
2023/03/16 02:37:18;;;;;;;0.50;0.50;;;;;;;-2.43;87.73;100705.66;5026304;28;20116;-60
2023/03/16 02:39:44;;;;;;;0.60;0.60;;;;;;;-2.45;87.63;100708.94;5026082;28;20033;-60
2023/03/16 02:42:15;;;;;;;0.60;0.60;;;;;;;-2.50;87.51;100711.25;5026378;28;20033;-60
2023/03/16 02:44:47;;;;;;;0.70;0.70;;;;;;;-2.52;87.62;100712.84;5026083;28;20100;-60
2023/03/16 02:47:23;;;;;;;0.60;0.60;;;;;;;-2.53;87.76;100719.59;5026229;28;20038;-60
2023/03/16 02:49:49;;;;;;;0.60;0.60;;;;;;;-2.58;87.71;100709.97;5025975;28;20257;-61
2023/03/16 02:52:14;;;;;;;0.60;0.60;;;;;;;-2.54;88.03;100715.31;5026290;28;20132;-61
2023/03/16 02:54:39;;;;;;;0.60;0.60;;;;;;;-2.51;87.93;100712.06;5026081;28;20041;-61
2023/03/16 02:57:05;;;;;;;0.57;0.57;;;;;;;-2.49;88.26;100713.88;5025803;28;20520;-60
2023/03/16 02:59:30;;;;;;;0.60;0.60;;;;;;;-2.42;88.60;100714.16;5025414;28;20605;-60
2023/03/16 03:01:56;;;;;;;0.40;0.40;;;;;;;-2.32;89.07;100720.59;5025611;28;20025;-60
2023/03/16 03:04:23;;;;;;;0.60;0.60;;;;;;;-2.22;89.05;100722.78;5044141;28;20097;-60
2023/03/16 03:06:50;;;;;;;0.50;0.50;;;;;;;-2.21;89.09;100718.56;5048138;28;20607;-60
2023/03/16 03:09:16;;;;;;;0.60;0.60;;;;;;;-2.17;88.88;100730.66;5047821;28;20029;-60
2023/03/16 03:11:41;;;;;;;0.60;0.60;;;;;;;-2.21;88.79;100723.66;5047916;28;20037;-60
2023/03/16 03:14:07;;;;;;;0.50;0.50;;;;;;;-2.21;88.67;100729.63;5047876;28;20387;-60
2023/03/16 03:16:32;;;;;;;0.50;0.50;;;;;;;-2.20;88.74;100730.47;5047366;28;20440;-59
2023/03/16 03:18:58;;;;;;;0.50;0.50;;;;;;;-2.21;88.55;100736.38;5047804;28;20060;-60
2023/03/16 03:21:24;;;;;;;0.50;0.50;;;;;;;-2.25;88.42;100732.78;5047836;28;20034;-62
2023/03/16 03:23:49;;;;;;;0.60;0.60;;;;;;;-2.20;88.59;100736.44;5047532;28;20029;-59
2023/03/16 03:26:15;;;;;;;0.50;0.50;;;;;;;-2.14;88.62;100740.97;5047423;28;20030;-60
2023/03/16 03:28:42;;;;;;;0.60;0.60;;;;;;;-2.08;88.74;100746.38;5047571;28;20059;-60
2023/03/16 03:31:13;;;;;;;0.50;0.50;;;;;;;-1.98;88.80;100746.81;5047485;28;20029;-60
2023/03/16 03:33:39;;;;;;;0.68;0.68;;;;;;;-1.84;88.79;100744.91;5047453;28;20025;-60
2023/03/16 03:36:04;;;;;;;0.50;0.50;;;;;;;-1.71;88.60;100746.38;5047370;28;20059;-61
2023/03/16 03:38:30;;;;;;;0.50;0.50;;;;;;;-1.54;88.09;100749.72;5047164;28;20056;-61
2023/03/16 03:40:58;;;;;;;0.50;0.50;;;;;;;-1.43;87.93;100742.56;5047516;28;20029;-60
2023/03/16 03:43:24;;;;;;;0.57;0.57;;;;;;;-1.38;87.83;100741.13;5047092;28;20029;-61
2023/03/16 03:45:57;;;;;;;0.50;0.50;;;;;;;-1.36;87.75;100747.16;5061829;28;20033;-61
2023/03/16 03:48:23;;;;;;;1.27;1.27;;;;;;;-1.42;87.51;100749.44;5047151;28;20032;-65
2023/03/16 03:50:49;;;;;;;0.50;0.50;;;;;;;-1.54;87.10;100758.22;5047050;28;20025;-60
2023/03/16 03:53:15;;;;;;;0.50;0.50;;;;;;;-1.71;86.93;100751.47;5046936;28;20047;-61
2023/03/16 03:55:40;;;;;;;0.50;0.50;;;;;;;-1.78;87.19;100753.72;5047007;28;20156;-60
2023/03/16 03:58:05;;;;;;;0.57;0.57;;;;;;;-1.76;87.29;100751.25;5046840;28;20022;-60
2023/03/16 04:00:31;;;;;;;0.50;0.50;;;;;;;-1.71;87.17;100748.94;5046934;28;20030;-60
2023/03/16 04:02:56;;;;;;;0.52;0.52;;;;;;;-1.69;87.11;100749.88;5046921;28;20051;-61
2023/03/16 04:05:24;;;;;;;0.40;0.40;;;;;;;-1.66;86.62;100753.44;5047018;28;20029;-60
2023/03/16 04:07:53;;;;;;;0.50;0.50;;;;;;;-1.56;86.15;100764.03;5046934;28;20017;-61
2023/03/16 04:10:19;;;;;;;0.50;0.50;;;;;;;-1.52;86.13;100763.41;5046837;28;20537;-61
2023/03/16 04:12:45;;;;;;;0.60;0.60;;;;;;;-1.55;86.18;100769.19;5046695;28;20056;-61
2023/03/16 04:15:11;;;;;;;0.50;0.50;;;;;;;-1.58;86.40;100776.69;5046544;28;20018;-61
2023/03/16 04:17:36;;;;;;;0.50;0.50;;;;;;;-1.62;86.62;100775.69;5046675;28;20080;-61
2023/03/16 04:20:06;;;;;;;0.50;0.50;;;;;;;-1.67;86.61;100769.50;5061848;28;20033;-60
2023/03/16 04:22:31;;;;;;;0.50;0.50;;;;;;;-1.69;86.48;100780.44;5046581;28;20386;-61
2023/03/16 04:24:57;;;;;;;0.60;0.60;;;;;;;-1.75;86.56;100786.97;5046903;28;20091;-60
2023/03/16 04:27:22;;;;;;;0.50;0.50;;;;;;;-1.81;86.48;100784.13;5046513;28;20021;-61
2023/03/16 04:29:48;;;;;;;0.50;0.50;;;;;;;-1.89;86.47;100776.13;5046587;28;20026;-60
2023/03/16 04:32:13;;;;;;;0.50;0.50;;;;;;;-1.98;86.50;100773.09;5046253;28;20041;-60
2023/03/16 04:34:42;;;;;;;0.52;0.52;;;;;;;-2.04;86.31;100786.41;5046413;28;20030;-60
2023/03/16 04:37:08;;;;;;;0.60;0.60;;;;;;;-2.12;86.28;100780.06;5046495;28;20025;-61
2023/03/16 04:39:33;;;;;;;0.50;0.50;;;;;;;-2.10;86.52;100781.03;5046508;28;20056;-61
2023/03/16 04:41:59;;;;;;;0.50;0.50;;;;;;;-2.10;86.36;100777.59;5046187;28;20044;-61
2023/03/16 04:44:24;;;;;;;0.57;0.57;;;;;;;-2.12;86.31;100787.69;5046731;28;20056;-60
2023/03/16 04:46:50;;;;;;;0.50;0.50;;;;;;;-2.19;86.19;100791.59;5046167;28;20112;-60
2023/03/16 04:49:15;;;;;;;0.50;0.50;;;;;;;-2.25;86.26;100793.84;5046164;28;20086;-59
2023/03/16 04:51:41;;;;;;;0.50;0.50;;;;;;;-2.15;86.04;100792.63;5045984;28;20025;-62
2023/03/16 04:54:07;;;;;;;0.55;0.55;;;;;;;-1.91;85.14;100794.66;5046005;28;20025;-61
2023/03/16 04:56:32;;;;;;;0.50;0.50;;;;;;;-1.66;83.88;100801.81;5045640;28;20076;-61
2023/03/16 04:58:58;;;;;;;0.50;0.50;;;;;;;-1.54;83.03;100803.19;5045459;28;20025;-60
2023/03/16 05:01:23;;;;;;;0.52;0.52;;;;;;;-1.47;82.61;100812.00;5045818;28;20045;-61
2023/03/16 05:03:49;;;;;;;0.50;0.50;;;;;;;-1.44;82.29;100813.03;5045755;28;20461;-60
2023/03/16 05:06:14;;;;;;;0.50;0.50;;;;;;;-1.29;81.73;100811.97;5045746;28;20025;-63
2023/03/16 05:08:41;;;;;;;0.50;0.50;;;;;;;-1.18;80.90;100820.16;5045706;28;20066;-61
2023/03/16 05:11:06;;;;;;;0.50;0.50;;;;;;;-1.17;80.42;100826.97;5045619;28;20036;-61
2023/03/16 05:13:32;;;;;;;0.50;0.50;;;;;;;-1.19;80.51;100821.81;5045482;28;20025;-61
2023/03/16 05:15:58;;;;;;;0.50;0.50;;;;;;;-1.21;80.28;100828.50;5045496;28;20084;-61
2023/03/16 05:18:24;;;;;;;0.50;0.50;;;;;;;-1.26;80.10;100825.75;5045502;28;20057;-62
2023/03/16 05:20:52;;;;;;;0.50;0.50;;;;;;;-1.30;80.10;100831.50;5045617;28;20517;-62
2023/03/16 05:23:18;;;;;;;0.57;0.57;;;;;;;-1.25;79.66;100832.56;5045393;28;20152;-62
2023/03/16 05:25:45;;;;;;;0.50;0.50;;;;;;;-1.18;78.91;100835.44;5045529;28;20432;-69
2023/03/16 05:28:11;;;;;;;0.60;0.60;;;;;;;-1.10;78.47;100839.19;5045305;28;20040;-62
2023/03/16 05:30:36;;;;;;;0.60;0.60;;;;;;;-1.02;77.73;100839.53;5043822;28;20036;-63
2023/03/16 05:33:02;;;;;;;0.60;0.60;;;;;;;-0.86;76.79;100843.66;5045381;28;20080;-65
2023/03/16 05:35:27;;;;;;;0.50;0.50;;;;;;;-0.81;76.85;100841.31;5044303;28;20401;-64
2023/03/16 05:37:53;;;;;;;0.60;0.60;;;;;;;-0.67;76.50;100849.63;5045053;28;20029;-65
2023/03/16 05:40:21;;;;;;;0.50;0.50;;;;;;;-0.60;76.72;100846.53;5044673;28;20067;-65
2023/03/16 05:42:49;;;;;;;0.50;0.50;;;;;;;-0.44;76.83;100853.19;5044882;28;20031;-64
2023/03/16 05:45:15;;;;;;;0.50;0.50;;;;;;;-0.33;76.80;100845.97;5045091;28;20025;-65
2023/03/16 05:47:42;;;;;;;0.50;0.50;;;;;;;-0.06;76.48;100864.97;5045117;28;20109;-64
2023/03/16 05:50:10;;;;;;;0.50;0.50;;;;;;;0.14;76.31;100867.50;5045074;28;20026;-65
2023/03/16 05:52:37;;;;;;;0.50;0.50;;;;;;;0.33;76.85;100872.56;5043606;28;20091;-65
2023/03/16 05:55:04;;;;;;;0.50;0.50;;;;;;;0.51;77.07;100865.59;5044774;28;20489;-65
2023/03/16 05:57:30;;;;;;;0.50;0.50;;;;;;;0.57;75.05;100876.94;5045126;28;20029;-65
2023/03/16 05:59:56;;;;;;;0.50;0.50;;;;;;;0.44;73.98;100875.56;5045169;28;20025;-65
2023/03/16 06:02:22;;;;;;;0.50;0.50;;;;;;;0.35;73.41;100881.16;5045044;28;20025;-65
2023/03/16 06:04:47;;;;;;;0.50;0.50;;;;;;;0.20;72.71;100867.75;5060285;28;20025;-64
2023/03/16 06:07:12;;;;;;;0.50;0.50;;;;;;;0.06;73.13;100885.03;5045135;28;20113;-64
2023/03/16 06:09:38;;;;;;;1.48;1.48;;;;;;;-0.09;72.87;100878.47;5060156;28;20043;-65
2023/03/16 06:12:03;;;;;;;0.50;0.50;;;;;;;-0.38;72.93;100865.31;5044480;28;20022;-65
2023/03/16 06:14:29;;;;;;;0.50;0.50;;;;;;;-0.44;73.08;100888.00;5044961;28;20044;-65
2023/03/16 06:16:54;;;;;;;0.60;0.60;;;;;;;-0.40;73.28;100890.75;5044587;28;20034;-65
2023/03/16 06:19:20;;;;;;;0.50;0.50;;;;;;;-0.13;74.00;100889.38;5044986;28;20068;-65
2023/03/16 06:21:46;;;;;;;0.50;0.50;;;;;;;0.29;74.00;100880.03;5044803;28;20029;-65
2023/03/16 06:24:11;;;;;;;0.50;0.50;;;;;;;0.49;73.06;100868.97;5044890;28;20052;-65
2023/03/16 06:26:37;;;;;;;0.50;0.50;;;;;;;0.58;72.02;100882.88;5044891;28;20018;-65
2023/03/16 06:29:12;;;;;;;0.50;0.50;;;;;;;0.59;70.58;100889.78;5044739;28;20026;-65
2023/03/16 06:31:37;;;;;;;0.50;0.50;;;;;;;0.58;70.98;100886.31;5044942;28;20025;-68
2023/03/16 06:34:03;;;;;;;0.50;0.50;;;;;;;0.64;70.14;100892.50;5044706;28;20037;-66
2023/03/16 06:36:28;;;;;;;0.50;0.50;;;;;;;0.65;69.23;100897.69;5060070;28;20025;-66
2023/03/16 06:38:53;;;;;;;0.60;0.60;;;;;;;0.61;68.53;100903.47;5044706;28;20030;-66
2023/03/16 06:41:20;;;;;;;0.50;0.50;;;;;;;0.49;67.61;100901.28;5044677;28;20036;-64
2023/03/16 06:43:45;;;;;;;0.50;0.50;;;;;;;0.27;67.90;100909.75;5044561;28;20045;-63
2023/03/16 06:46:11;;;;;;;0.50;0.50;;;;;;;0.14;67.78;100903.25;5044562;28;20048;-63
2023/03/16 06:48:36;;;;;;;0.50;0.50;;;;;;;0.20;67.62;100904.38;5044626;28;20081;-62
2023/03/16 06:51:02;;;;;;;0.60;0.60;;;;;;;0.41;68.30;100900.97;5044558;28;20021;-63
2023/03/16 06:53:27;;;;;;;0.50;0.50;;;;;;;1.01;68.22;100905.88;5044351;28;20104;-63
2023/03/16 06:55:52;;;;;;;0.50;0.50;;;;;;;1.48;66.05;100911.03;5044615;28;20029;-64
2023/03/16 06:58:18;;;;;;;0.50;0.50;;;;;;;1.59;64.82;100902.09;5044250;28;20021;-64
2023/03/16 07:00:43;;;;;;;0.50;0.50;;;;;;;1.88;63.89;100908.19;5044388;28;20022;-64
2023/03/16 07:03:09;;;;;;;0.50;0.50;;;;;;;1.97;64.58;100917.06;5044584;28;20029;-62
2023/03/16 07:05:34;;;;;;;0.50;0.50;;;;;;;2.10;64.48;100915.81;5044458;28;20039;-62
2023/03/16 07:08:00;;;;;;;0.50;0.50;;;;;;;2.00;63.94;100925.69;5044412;28;20022;-63
2023/03/16 07:10:25;;;;;;;7.63;4.65;;;;;;;1.78;62.91;100906.97;5044478;28;20021;-63
2023/03/16 07:12:50;;;;;;;0.50;0.50;;;;;;;1.65;62.71;100923.56;5044328;28;20021;-63
2023/03/16 07:15:16;;;;;;;0.50;0.50;;;;;;;1.44;62.04;100927.06;5044139;28;20129;-63
2023/03/16 07:17:42;;;;;;;0.50;0.50;;;;;;;1.16;62.57;100926.03;5044469;28;20029;-63
2023/03/16 07:20:10;;;;;;;0.50;0.50;;;;;;;1.02;62.91;100935.75;5044625;28;20450;-63
2023/03/16 07:22:36;;;;;;;0.50;0.50;;;;;;;0.92;63.19;100949.84;5047958;28;20056;-64
2023/03/16 07:25:03;;;;;;;0.45;0.45;;;;;;;0.89;63.80;100942.94;5048085;28;20219;-63
2023/03/16 07:27:29;;;;;;;0.50;0.50;;;;;;;0.94;63.94;100941.41;5047757;28;20477;-63
2023/03/16 07:29:54;;;;;;;0.50;0.50;;;;;;;1.01;62.94;100945.09;5047986;28;20053;-63
2023/03/16 07:32:21;;;;;;;0.57;0.57;;;;;;;0.94;62.92;100941.41;5047726;28;20446;-63
2023/03/16 07:34:46;;;;;;;1.08;1.08;;;;;;;0.88;64.12;100948.81;5047768;28;20094;-63
2023/03/16 07:37:12;;;;;;;0.50;0.50;;;;;;;0.95;63.58;100943.16;5047755;28;20485;-63
2023/03/16 07:39:38;;;;;;;0.50;0.50;;;;;;;0.99;62.93;100939.91;5047760;28;20025;-62
2023/03/16 07:42:03;;;;;;;0.50;0.50;;;;;;;0.99;63.69;100952.69;5047489;28;20625;-63
2023/03/16 07:44:30;;;;;;;0.50;0.50;;;;;;;1.00;64.11;100953.56;5047647;28;20037;-64
2023/03/16 07:46:56;;;;;;;0.50;0.50;;;;;;;1.22;63.91;100956.97;5047340;28;20033;-63
2023/03/16 07:49:21;;;;;;;0.50;0.50;;;;;;;1.47;63.40;100963.06;5047583;28;20029;-63
2023/03/16 07:51:47;;;;;;;9.82;3.15;;;;;;;1.81;64.47;100955.72;5047433;28;20099;-63
2023/03/16 07:54:13;;;;;;;0.50;0.50;;;;;;;2.32;65.05;100961.78;5047319;28;20017;-62
2023/03/16 07:56:38;;;;;;;0.45;0.45;;;;;;;2.82;64.34;100966.88;5047264;28;20036;-63
2023/03/16 07:59:04;;;;;;;0.95;0.95;;;;;;;3.13;63.46;100969.53;5047393;28;20450;-63
2023/03/16 08:01:29;;;;;;;0.50;0.50;;;;;;;3.56;62.46;100969.13;5047261;28;20136;-64
2023/03/16 08:03:54;;;;;;;0.45;0.45;;;;;;;3.68;59.98;100966.03;5047136;28;20083;-63
2023/03/16 08:06:20;;;;;;;1.02;1.02;;;;;;;3.77;58.85;100963.72;5047224;28;20040;-63
2023/03/16 08:08:46;;;;;;;0.50;0.50;;;;;;;3.76;58.12;100961.09;5045950;28;20025;-64
2023/03/16 08:11:12;;;;;;;0.50;0.50;;;;;;;3.66;60.03;100960.00;5047257;28;20052;-63
2023/03/16 08:13:37;;;;;;;0.50;0.50;;;;;;;3.87;59.85;100962.28;5047041;28;20025;-63
2023/03/16 08:16:04;;;;;;;0.47;0.47;;;;;;;4.09;60.48;100966.31;5046728;28;20045;-62
2023/03/16 08:18:29;;;;;;;0.50;0.50;;;;;;;4.10;61.67;100956.94;5044901;28;20017;-62
2023/03/16 08:20:56;;;;;;;0.50;0.50;;;;;;;4.32;58.81;100965.19;5046970;28;20081;-64
2023/03/16 08:23:23;;;;;;;0.50;0.50;;;;;;;4.09;58.95;100968.00;5046725;28;20051;-63
2023/03/16 08:25:56;;;;;;;0.50;0.50;;;;;;;3.94;58.86;100981.31;5046729;28;20029;-65
2023/03/16 08:28:24;;;;;;;0.40;0.40;;;;;;;3.74;59.39;100984.19;5046627;28;20021;-62
2023/03/16 08:30:52;;;;;;;0.50;0.50;;;;;;;3.69;62.42;100978.06;5046669;28;20055;-62
2023/03/16 08:33:19;;;;;;;0.50;0.50;;;;;;;4.01;63.78;100978.06;5046548;28;20027;-63
2023/03/16 08:35:45;;;;;;;0.50;0.50;;;;;;;4.33;62.40;100972.06;5046829;28;20363;-63
2023/03/16 08:38:11;;;;;;;5.57;4.85;;;;;;;4.52;58.21;100972.56;5046547;28;20026;-63
2023/03/16 08:40:40;;;;;;;0.50;0.50;;;;;;;4.61;56.57;100974.50;5046387;28;20096;-63
2023/03/16 08:43:05;;;;;;;0.50;0.50;;;;;;;4.44;59.69;100985.22;5046446;28;20042;-63
2023/03/16 08:45:32;;;;;;;0.82;0.82;;;;;;;4.79;63.54;100982.66;5046405;28;20029;-63
2023/03/16 08:47:58;;;;;;;0.40;0.40;;;;;;;5.30;65.06;100990.72;5046500;28;20083;-63
2023/03/16 08:50:24;;;;;;;0.50;0.50;;;;;;;5.68;63.36;100994.13;5046353;28;20045;-63
2023/03/16 08:52:49;;;;;;;0.93;0.93;;;;;;;5.63;63.87;100986.31;5046383;28;20047;-62
2023/03/16 08:55:15;;;;;;;0.40;0.40;;;;;;;5.57;60.46;100992.16;5046138;28;20532;-62
2023/03/16 08:57:40;;;;;;;0.40;0.40;;;;;;;5.31;59.31;100984.75;5046208;28;20085;-63
2023/03/16 09:00:13;;;;;;;0.45;0.45;;;;;;;5.20;59.52;101004.22;5044990;28;20432;-64
2023/03/16 09:02:40;;;;;;;0.50;0.50;;;;;;;5.28;60.43;100999.25;5046023;28;20104;-62
2023/03/16 09:05:10;;;;;;;3.03;2.17;;;;;;;5.33;61.70;101007.97;5045877;28;20081;-62
2023/03/16 09:07:36;;;;;;;0.40;0.40;;;;;;;5.40;62.45;101009.84;5045876;28;20022;-62
2023/03/16 09:10:04;;;;;;;0.65;0.65;;;;;;;5.54;59.31;101012.72;5046150;28;20029;-62
2023/03/16 09:12:31;;;;;;;0.57;0.57;;;;;;;5.30;58.64;101015.63;5045905;28;20029;-63
2023/03/16 09:14:57;;;;;;;0.45;0.45;;;;;;;5.12;57.46;101008.31;5045766;28;20017;-63
2023/03/16 09:17:22;;;;;;;0.50;0.50;;;;;;;4.95;56.05;101007.06;5045520;28;20032;-62
2023/03/16 09:19:48;;;;;;;0.40;0.40;;;;;;;4.75;57.33;101018.56;5045712;28;20036;-62
2023/03/16 09:22:13;;;;;;;0.50;0.50;;;;;;;4.75;58.42;101013.41;5046020;28;20030;-62
2023/03/16 09:24:39;;;;;;;0.50;0.50;;;;;;;4.82;56.62;101017.91;5045529;28;20028;-62
2023/03/16 09:27:04;;;;;;;0.50;0.50;;;;;;;4.79;54.85;101015.25;5045660;28;20014;-62
2023/03/16 09:29:30;;;;;;;0.43;0.43;;;;;;;4.63;56.17;101024.28;5045584;28;20021;-63
2023/03/16 09:31:56;;;;;;;0.50;0.50;;;;;;;4.64;60.04;101024.31;5045512;28;20021;-63
2023/03/16 09:34:21;;;;;;;0.40;0.40;;;;;;;5.01;61.05;101026.09;5045562;28;20044;-63
2023/03/16 09:36:47;;;;;;;0.95;0.95;;;;;;;5.44;60.71;101021.97;5045467;28;20022;-62
2023/03/16 09:39:12;;;;;;;0.50;0.50;;;;;;;5.50;61.28;101026.38;5045491;28;20050;-63
2023/03/16 09:41:41;;;;;;;0.40;0.40;;;;;;;5.56;57.00;101026.50;5045406;28;20033;-62
2023/03/16 09:44:25;;;;;;;0.40;0.40;;;;;;;5.23;57.81;101034.31;5045038;28;20021;-62
2023/03/16 09:46:51;;;;;;;0.40;0.40;;;;;;;5.04;58.51;101026.16;5045157;28;20408;-63
2023/03/16 09:49:26;;;;;;;1.70;1.60;;;;;;;5.06;56.89;101025.34;5045312;28;20101;-62
2023/03/16 09:52:17;;;;;;;0.50;0.50;;;;;;;4.96;55.84;101026.84;5045552;28;20104;-63
2023/03/16 09:54:55;;;;;;;0.60;0.60;;;;;;;4.99;56.96;101030.31;5042583;28;20033;-62
2023/03/16 09:57:34;;;;;;;0.50;0.50;;;;;;;5.13;59.46;101022.94;5045258;28;20109;-63
2023/03/16 10:00:16;;;;;;;0.70;0.70;;;;;;;5.37;57.26;101030.34;5045105;28;20029;-62
2023/03/16 10:03:09;;;;;;;0.60;0.60;;;;;;;5.57;57.24;101033.38;5045091;28;20033;-63
2023/03/16 10:05:37;;;;;;;0.50;0.50;;;;;;;5.59;55.63;101041.19;5044953;28;20083;-62
2023/03/16 10:08:21;;;;;;;0.47;0.47;;;;;;;5.55;55.39;101045.38;5044978;28;20026;-62
2023/03/16 10:11:05;;;;;;;0.50;0.50;;;;;;;5.58;55.14;101049.72;5045242;28;20100;-62
2023/03/16 10:13:33;;;;;;;0.60;0.60;;;;;;;5.65;53.23;101049.03;5044978;28;20032;-62
2023/03/16 10:16:04;;;;;;;0.50;0.50;;;;;;;5.87;50.67;101040.88;5044510;28;20050;-63
2023/03/16 10:18:37;;;;;;;0.50;0.50;;;;;;;5.83;52.42;101043.41;5045003;28;20026;-64
2023/03/16 10:21:04;;;;;;;0.40;0.40;;;;;;;5.89;51.46;101050.41;5060538;28;20381;-63
2023/03/16 10:23:33;;;;;;;0.50;0.50;;;;;;;5.92;52.76;101036.72;5044923;28;20386;-63
2023/03/16 10:25:58;;;;;;;0.50;0.50;;;;;;;6.08;48.09;101040.50;5045067;28;20469;-63
2023/03/16 10:28:26;;;;;;;0.40;0.40;;;;;;;5.91;49.07;101043.56;5045026;28;20050;-63
2023/03/16 10:30:55;;;;;;;0.40;0.40;;;;;;;5.86;49.38;101040.03;5044720;28;20497;-63
2023/03/16 10:33:30;;;;;;;0.50;0.50;;;;;;;5.90;51.99;101036.69;5044797;28;20044;-63
2023/03/16 10:36:04;;;;;;;0.47;0.47;;;;;;;6.18;52.12;101045.00;5044914;28;20021;-63
2023/03/16 10:38:58;;;;;;;0.40;0.40;;;;;;;6.32;50.29;101044.41;5060179;28;20029;-63
2023/03/16 10:41:28;;;;;;;0.50;0.50;;;;;;;6.27;48.76;101040.88;5042579;28;20033;-65
2023/03/16 10:43:56;;;;;;;0.40;0.40;;;;;;;6.25;46.68;101052.84;5044757;28;20026;-63
2023/03/16 10:46:24;;;;;;;0.40;0.40;;;;;;;6.10;46.17;101037.97;5044798;28;20044;-63
2023/03/16 10:48:58;;;;;;;0.50;0.50;;;;;;;5.83;48.40;101038.25;5044642;28;20079;-63
2023/03/16 10:51:26;;;;;;;0.43;0.43;;;;;;;6.12;44.68;101037.13;5044935;28;20119;-64
2023/03/16 10:53:53;;;;;;;0.50;0.50;;;;;;;6.10;45.42;101038.84;5044600;28;20026;-63
2023/03/16 10:56:23;;;;;;;0.50;0.50;;;;;;;6.27;44.40;101031.44;5046693;28;20021;-64
2023/03/16 10:58:48;;;;;;;0.50;0.50;;;;;;;6.23;41.56;101023.59;5048435;28;20103;-66
2023/03/16 11:01:27;;;;;;;0.50;0.50;;;;;;;5.87;42.58;101035.72;5048278;28;20029;-62
2023/03/16 11:03:55;;;;;;;0.40;0.40;;;;;;;5.81;46.58;101033.91;5048343;28;20041;-62
2023/03/16 11:06:29;;;;;;;0.50;0.50;;;;;;;6.36;44.74;101040.19;5048607;28;20037;-64
2023/03/16 11:09:13;;;;;;;0.50;0.50;;;;;;;7.04;44.32;101031.06;5048366;28;20032;-64
2023/03/16 11:11:39;;;;;;;0.50;0.50;;;;;;;7.30;40.89;101024.59;5048227;28;20033;-64
2023/03/16 11:14:11;;;;;;;0.50;0.50;;;;;;;7.05;39.80;101027.63;5048222;28;20066;-63
2023/03/16 11:16:46;;;;;;;0.50;0.50;;;;;;;6.56;44.67;101045.72;5047824;28;20077;-63
2023/03/16 11:19:17;;;;;;;0.50;0.50;;;;;;;6.40;47.00;101044.56;5048160;28;20034;-61
2023/03/16 11:21:49;;;;;;;0.50;0.50;;;;;;;6.31;48.11;101038.38;5048061;28;20030;-62
2023/03/16 11:24:25;;;;;;;;;;;;;;;6.19;46.50;101031.28;5048343;28;20030;-62
2023/03/16 11:26:57;;;;;;;0.50;0.50;;;;;;;6.01;47.86;101023.13;5047967;28;19951;-63
2023/03/16 11:29:32;;;;;;;0.50;0.50;;;;;;;5.87;50.76;101026.31;5047906;28;20032;-62
2023/03/16 11:32:25;;;;;;;0.50;0.50;;;;;;;5.89;53.89;101029.78;5047801;28;20109;-63